createdAt,value
2022-09-01T00:00:53.430Z,101416.48
2022-09-01T00:03:26.720Z,101413.42
2022-09-01T00:05:58.782Z,101407.55
2022-09-01T00:08:30.891Z,101409.42
2022-09-01T00:11:02.767Z,101410.50
2022-09-01T00:13:35.931Z,101410.06
2022-09-01T00:16:09.912Z,101404.61
2022-09-01T00:18:43.092Z,101403.90
2022-09-01T00:21:15.394Z,101399.21
2022-09-01T00:23:48.458Z,101399.54
2022-09-01T00:26:20.540Z,101397.96
2022-09-01T00:28:52.554Z,101402.03
2022-09-01T00:31:25.040Z,101402.43
2022-09-01T00:33:58.051Z,101403.70
2022-09-01T00:36:29.904Z,101406.09
2022-09-01T00:39:02.987Z,101404.49
2022-09-01T00:41:38.472Z,101405.58
2022-09-01T00:44:15.107Z,101408.78
2022-09-01T00:46:55.020Z,101407.65
2022-09-01T00:49:30.106Z,101406.52
2022-09-01T00:52:06.511Z,101406.52
2022-09-01T00:54:43.184Z,101404.48
2022-09-01T00:57:16.397Z,101403.91
2022-09-01T00:59:51.686Z,101405.13
2022-09-01T01:02:24.180Z,101405.30
2022-09-01T01:05:03.102Z,101401.36
2022-09-01T01:07:46.036Z,101400.70
2022-09-01T01:10:30.601Z,101405.86
2022-09-01T01:13:04.924Z,101400.75
2022-09-01T01:15:37.155Z,101400.81
2022-09-01T01:18:09.283Z,101399.93
2022-09-01T01:21:00.803Z,101399.26
2022-09-01T01:23:40.363Z,101402.81
2022-09-01T01:26:12.925Z,101401.35
2022-09-01T01:28:45.491Z,101399.94
2022-09-01T01:31:26.429Z,101399.05
2022-09-01T01:33:59.398Z,101401.13
2022-09-01T01:36:36.483Z,101403.59
2022-09-01T01:39:14.032Z,101400.45
2022-09-01T01:41:52.271Z,101398.23
2022-09-01T01:44:28.072Z,101398.82
2022-09-01T01:47:00.917Z,101399.48
2022-09-01T01:49:32.824Z,101402.80
2022-09-01T01:52:11.820Z,101402.23
2022-09-01T01:54:46.244Z,101402.82
2022-09-01T01:57:18.625Z,101405.50
2022-09-01T01:59:50.502Z,101401.74
2022-09-01T02:02:23.997Z,101400.86
2022-09-01T02:04:56.574Z,101401.80
2022-09-01T02:07:30.295Z,101395.95
2022-09-01T02:10:06.658Z,101394.83
2022-09-01T02:12:44.622Z,101393.22
2022-09-01T02:15:16.505Z,101399.49
2022-09-01T02:17:49.084Z,101399.69
2022-09-01T02:20:22.090Z,101400.48
2022-09-01T02:22:58.840Z,101401.49
2022-09-01T02:25:32.070Z,101399.68
2022-09-01T02:28:05.436Z,101403.10
2022-09-01T02:30:37.972Z,101405.50
2022-09-01T02:33:11.256Z,101405.01
2022-09-01T02:35:44.473Z,101405.48
2022-09-01T02:38:18.059Z,101405.64
2022-09-01T02:40:50.504Z,101403.46
2022-09-01T02:43:27.614Z,101397.23
2022-09-01T02:46:02.159Z,101397.14
2022-09-01T02:48:38.024Z,101397.60
2022-09-01T02:51:14.247Z,101396.27
2022-09-01T02:53:51.580Z,101396.45
2022-09-01T02:56:27.827Z,101396.67
2022-09-01T02:59:00.370Z,101401.19
2022-09-01T03:01:34.268Z,101399.34
2022-09-01T03:04:10.810Z,101400.31
2022-09-01T03:06:43.207Z,101398.63
2022-09-01T03:09:17.919Z,101395.86
2022-09-01T03:11:53.403Z,101395.50
2022-09-01T03:14:26.289Z,101393.41
2022-09-01T03:17:00.737Z,101393.25
2022-09-01T03:19:40.297Z,101390.08
2022-09-01T03:22:12.171Z,101388.50
2022-09-01T03:24:44.777Z,101383.73
2022-09-01T03:27:16.633Z,101380.56
2022-09-01T03:29:48.506Z,101381.04
2022-09-01T03:32:20.504Z,101384.36
2022-09-01T03:34:53.246Z,101386.15
2022-09-01T03:37:25.078Z,101387.73
2022-09-01T03:39:59.978Z,101394.34
2022-09-01T03:42:32.574Z,101393.34
2022-09-01T03:45:10.052Z,101388.05
2022-09-01T03:47:42.092Z,101389.61
2022-09-01T03:50:23.749Z,101391.21
2022-09-01T03:52:59.047Z,101394.80
2022-09-01T03:55:34.559Z,101394.61
2022-09-01T03:58:20.018Z,101395.49
2022-09-01T04:00:58.089Z,101396.34
2022-09-01T04:03:34.691Z,101398.11
2022-09-01T04:06:11.175Z,101394.41
2022-09-01T04:08:44.301Z,101398.11
2022-09-01T04:11:25.820Z,101397.31
2022-09-01T04:13:57.867Z,101397.71
2022-09-01T04:16:50.172Z,101397.37
2022-09-01T04:19:26.638Z,101400.11
2022-09-01T04:22:02.383Z,101399.59
2022-09-01T04:24:35.092Z,101403.30
2022-09-01T04:27:08.559Z,101406.27
2022-09-01T04:29:41.932Z,101399.57
2022-09-01T04:32:14.693Z,101400.69
2022-09-01T04:34:46.977Z,101407.30
2022-09-01T04:37:21.413Z,101403.17
2022-09-01T04:39:57.095Z,101406.02
2022-09-01T04:42:33.503Z,101409.84
2022-09-01T04:45:11.405Z,101404.00
2022-09-01T04:47:45.661Z,101400.82
2022-09-01T04:50:22.241Z,101404.33
2022-09-01T04:52:57.307Z,101411.18
2022-09-01T04:55:30.470Z,101416.80
2022-09-01T04:58:09.948Z,101417.83
2022-09-01T05:00:45.263Z,101417.52
2022-09-01T05:03:22.410Z,101418.20
2022-09-01T05:05:54.430Z,101417.57
2022-09-01T05:08:26.427Z,101415.72
2022-09-01T05:10:58.341Z,101419.80
2022-09-01T05:13:32.777Z,101420.16
2022-09-01T05:16:07.628Z,101417.85
2022-09-01T05:18:41.660Z,101416.92
2022-09-01T05:21:17.021Z,101417.05
2022-09-01T05:23:51.455Z,101416.15
2022-09-01T05:26:26.331Z,101414.43
2022-09-01T05:29:00.488Z,101415.86
2022-09-01T05:31:39.037Z,101417.89
2022-09-01T05:34:13.861Z,101418.95
2022-09-01T05:36:51.755Z,101423.34
2022-09-01T05:39:23.691Z,101422.61
2022-09-01T05:41:55.927Z,101419.75
2022-09-01T05:44:28.707Z,101422.08
2022-09-01T05:47:03.529Z,101417.67
2022-09-01T05:49:36.437Z,101422.74
2022-09-01T05:52:09.371Z,101418.70
2022-09-01T05:54:42.487Z,101415.88
2022-09-01T05:57:33.165Z,101415.48
2022-09-01T06:00:21.677Z,101418.08
2022-09-01T06:02:53.823Z,101416.09
2022-09-01T06:05:27.916Z,101417.86
2022-09-01T06:07:59.774Z,101420.05
2022-09-01T06:10:33.096Z,101421.02
2022-09-01T06:13:06.197Z,101420.02
2022-09-01T06:15:40.671Z,101423.44
2022-09-01T06:18:14.939Z,101426.86
2022-09-01T06:20:51.226Z,101423.95
2022-09-01T06:23:23.722Z,101425.39
2022-09-01T06:25:55.637Z,101421.51
2022-09-01T06:28:29.620Z,101420.70
2022-09-01T06:31:07.325Z,101422.23
2022-09-01T06:33:39.450Z,101428.03
2022-09-01T06:36:13.205Z,101430.30
2022-09-01T06:38:45.079Z,101435.50
2022-09-01T06:41:20.276Z,101435.81
2022-09-01T06:43:54.193Z,101439.34
2022-09-01T06:46:30.915Z,101444.88
2022-09-01T06:49:11.677Z,101445.96
2022-09-01T06:51:45.485Z,101451.99
2022-09-01T06:54:20.739Z,101456.48
2022-09-01T06:56:53.625Z,101459.41
2022-09-01T06:59:34.558Z,101457.72
2022-09-01T07:02:15.312Z,101453.05
2022-09-01T07:04:50.107Z,101454.30
2022-09-01T07:10:21.384Z,101453.84
2022-09-01T07:13:06.282Z,101451.46
2022-09-01T07:18:34.160Z,101447.14
2022-09-01T07:21:35.631Z,101449.67
2022-09-01T07:24:10.362Z,101443.92
2022-09-01T07:26:47.150Z,101442.64
2022-09-01T07:29:22.883Z,101442.60
2022-09-01T07:34:49.082Z,101448.27
2022-09-01T07:43:22.530Z,101449.17
2022-09-01T07:46:36.638Z,101449.27
2022-09-01T07:49:29.291Z,101449.63
2022-09-01T07:51:53.977Z,101453.45
2022-09-01T07:54:26.349Z,101450.52
2022-09-01T07:56:58.228Z,101454.08
2022-09-01T07:59:31.381Z,101451.05
2022-09-01T08:02:06.771Z,101452.65
2022-09-01T08:04:40.209Z,101453.88
2022-09-01T08:07:15.997Z,101453.13
2022-09-01T08:09:48.662Z,101454.86
2022-09-01T08:12:28.950Z,101455.63
2022-09-01T08:17:54.403Z,101463.70
2022-09-01T08:20:26.281Z,101459.10
2022-09-01T08:22:58.276Z,101467.00
2022-09-01T08:25:30.911Z,101465.96
2022-09-01T08:28:04.815Z,101465.45
2022-09-01T08:30:38.984Z,101465.66
2022-09-01T08:33:12.199Z,101469.34
2022-09-01T08:35:45.620Z,101472.80
2022-09-01T08:38:18.141Z,101465.88
2022-09-01T08:40:57.392Z,101467.25
2022-09-01T08:43:43.308Z,101468.09
2022-09-01T08:46:21.037Z,101464.48
2022-09-01T08:49:24.139Z,101461.61
2022-09-01T08:51:53.283Z,101463.55
2022-09-01T08:54:43.193Z,101462.98
2022-09-01T08:57:21.960Z,101460.20
2022-09-01T08:59:55.077Z,101462.15
2022-09-01T09:02:47.881Z,101465.65
2022-09-01T09:05:36.902Z,101462.09
2022-09-01T09:08:26.521Z,101465.69
2022-09-01T09:11:07.052Z,101467.08
2022-09-01T09:13:56.816Z,101467.73
2022-09-01T09:16:33.274Z,101466.90
2022-09-01T09:19:09.248Z,101470.13
2022-09-01T09:21:44.049Z,101466.39
2022-09-01T09:24:25.146Z,101463.77
2022-09-01T09:27:00.596Z,101465.23
2022-09-01T09:29:32.481Z,101462.11
2022-09-01T09:32:44.330Z,101460.41
2022-09-01T09:35:21.864Z,101457.13
2022-09-01T09:37:54.300Z,101453.02
2022-09-01T09:40:27.790Z,101451.80
2022-09-01T09:43:11.475Z,101454.90
2022-09-01T09:45:43.765Z,101452.19
2022-09-01T09:48:31.640Z,101446.52
2022-09-01T09:51:21.243Z,101445.25
2022-09-01T09:53:53.420Z,101439.45
2022-09-01T09:56:28.301Z,101446.27
2022-09-01T09:59:01.655Z,101439.32
2022-09-01T10:01:34.413Z,101441.85
2022-09-01T10:04:06.655Z,101443.02
2022-09-01T10:06:41.965Z,101439.42
2022-09-01T10:09:36.205Z,101439.58
2022-09-01T10:12:11.590Z,101438.59
2022-09-01T10:14:53.458Z,101434.58
2022-09-01T10:17:30.967Z,101433.27
2022-09-01T10:20:12.810Z,101432.02
2022-09-01T10:22:45.162Z,101429.88
2022-09-01T10:25:22.030Z,101427.09
2022-09-01T10:27:58.381Z,101429.17
2022-09-01T10:30:33.556Z,101429.31
2022-09-01T10:33:12.177Z,101433.53
2022-09-01T10:35:53.281Z,101428.81
2022-09-01T10:38:28.169Z,101425.61
2022-09-01T10:41:16.102Z,101424.80
2022-09-01T10:43:49.524Z,101427.65
2022-09-01T10:46:50.944Z,101434.14
2022-09-01T10:49:53.205Z,101429.31
2022-09-01T10:53:02.427Z,101430.65
2022-09-01T10:55:48.637Z,101425.43
2022-09-01T11:02:28.024Z,101427.40
2022-09-01T11:05:19.464Z,101425.75
2022-09-01T11:08:01.351Z,101425.65
2022-09-01T11:10:49.454Z,101423.98
2022-09-01T11:13:49.613Z,101427.79
2022-09-01T11:16:47.910Z,101422.92
2022-09-01T11:19:41.332Z,101427.56
2022-09-01T11:22:27.495Z,101426.06
2022-09-01T11:25:39.689Z,101428.33
2022-09-01T11:28:36.748Z,101424.46
2022-09-01T11:31:25.545Z,101424.29
2022-09-01T11:34:06.919Z,101423.67
2022-09-01T11:36:52.871Z,101418.92
2022-09-01T11:39:41.916Z,101417.55
2022-09-01T11:42:22.816Z,101412.71
2022-09-01T11:45:00.896Z,101412.59
2022-09-01T11:47:37.709Z,101414.92
2022-09-01T11:50:25.822Z,101408.84
2022-09-01T11:53:04.963Z,101413.10
2022-09-01T11:55:40.968Z,101416.58
2022-09-01T11:58:17.941Z,101407.40
2022-09-01T12:00:52.382Z,101406.53
2022-09-01T12:03:29.108Z,101410.56
2022-09-01T12:06:04.220Z,101403.14
2022-09-01T12:08:39.266Z,101402.52
2022-09-01T12:11:15.144Z,101398.95
2022-09-01T12:13:58.728Z,101399.67
2022-09-01T12:16:34.899Z,101399.87
2022-09-01T12:19:08.986Z,101394.77
2022-09-01T12:21:44.672Z,101397.54
2022-09-01T12:24:19.951Z,101399.98
2022-09-01T12:26:55.964Z,101397.27
2022-09-01T12:29:32.047Z,101386.58
2022-09-01T12:32:06.567Z,101389.76
2022-09-01T12:34:44.021Z,101390.27
2022-09-01T12:37:24.455Z,101393.24
2022-09-01T12:40:00.472Z,101389.83
2022-09-01T12:42:40.903Z,101384.73
2022-09-01T12:45:15.544Z,101384.24
2022-09-01T12:47:52.329Z,101377.05
2022-09-01T12:50:50.972Z,101377.95
2022-09-01T12:53:30.562Z,101374.95
2022-09-01T12:56:07.338Z,101369.27
2022-09-01T12:58:39.987Z,101362.73
2022-09-01T13:01:25.038Z,101356.59
2022-09-01T13:04:30.115Z,101361.96
2022-09-01T13:07:06.271Z,101357.93
2022-09-01T13:09:38.189Z,101360.45
2022-09-01T13:12:17.834Z,101361.01
2022-09-01T13:14:49.842Z,101369.51
2022-09-01T13:17:21.990Z,101370.00
2022-09-01T13:19:53.929Z,101366.39
2022-09-01T13:22:26.025Z,101371.20
2022-09-01T13:24:58.055Z,101374.15
2022-09-01T13:27:30.110Z,101369.63
2022-09-01T13:30:01.977Z,101366.55
2022-09-01T13:33:19.021Z,101367.66
2022-09-01T13:35:30.857Z,101365.91
2022-09-01T13:38:02.783Z,101367.20
2022-09-01T13:40:37.348Z,101364.65
2022-09-01T13:43:09.256Z,101366.55
2022-09-01T13:45:42.030Z,101365.35
2022-09-01T13:48:16.118Z,101362.90
2022-09-01T13:53:44.146Z,101367.35
2022-09-01T13:56:15.949Z,101366.10
2022-09-01T13:58:48.505Z,101366.42
2022-09-01T14:01:22.192Z,101364.84
2022-09-01T14:03:57.166Z,101363.09
2022-09-01T14:06:32.071Z,101363.39
2022-09-01T14:09:04.024Z,101363.44
2022-09-01T14:11:36.646Z,101368.56
2022-09-01T14:14:08.934Z,101363.60
2022-09-01T14:16:40.850Z,101367.39
2022-09-01T14:19:14.114Z,101372.19
2022-09-01T14:21:47.468Z,101368.65
2022-09-01T14:24:21.134Z,101370.08
2022-09-01T14:26:53.098Z,101366.67
2022-09-01T14:29:25.101Z,101368.32
2022-09-01T14:31:57.241Z,101364.69
2022-09-01T14:34:31.076Z,101369.58
2022-09-01T14:37:04.288Z,101367.53
2022-09-01T14:39:36.332Z,101372.52
2022-09-01T14:42:12.705Z,101372.11
2022-09-01T14:44:44.765Z,101370.84
2022-09-01T14:47:19.752Z,101369.34
2022-09-01T14:49:53.990Z,101367.44
2022-09-01T14:52:25.940Z,101369.47
2022-09-01T14:54:57.835Z,101368.16
2022-09-01T14:57:37.604Z,101365.99
2022-09-01T15:00:17.148Z,101364.61
2022-09-01T15:02:50.258Z,101363.80
2022-09-01T15:05:22.309Z,101364.20
2022-09-01T15:07:54.925Z,101363.14
2022-09-01T15:10:28.630Z,101358.13
2022-09-01T15:13:02.702Z,101357.56
2022-09-01T15:15:34.695Z,101358.30
2022-09-01T15:18:06.931Z,101358.03
2022-09-01T15:20:48.786Z,101356.86
2022-09-01T15:23:24.692Z,101352.08
2022-09-01T15:25:58.027Z,101350.10
2022-09-01T15:28:30.185Z,101354.52
2022-09-01T15:31:02.131Z,101350.70
2022-09-01T15:33:34.128Z,101354.29
2022-09-01T15:36:10.801Z,101352.59
2022-09-01T15:38:42.830Z,101351.92
2022-09-01T15:41:18.954Z,101348.89
2022-09-01T15:43:52.131Z,101349.80
2022-09-01T15:46:32.045Z,101347.56
2022-09-01T15:49:06.090Z,101343.14
2022-09-01T15:51:40.200Z,101350.14
2022-09-01T15:54:15.673Z,101345.77
2022-09-01T15:56:48.068Z,101348.81
2022-09-01T15:59:20.275Z,101342.78
2022-09-01T16:01:53.329Z,101340.63
2022-09-01T16:04:27.782Z,101340.66
2022-09-01T16:06:59.801Z,101341.20
2022-09-01T16:09:32.665Z,101341.62
2022-09-01T16:12:04.997Z,101340.17
2022-09-01T16:14:36.873Z,101338.42
2022-09-01T16:17:18.938Z,101336.11
2022-09-01T16:19:57.507Z,101337.05
2022-09-01T16:22:32.662Z,101335.21
2022-09-01T16:25:08.522Z,101335.41
2022-09-01T16:27:44.703Z,101335.49
2022-09-01T16:30:31.519Z,101333.09
2022-09-01T16:33:19.978Z,101333.08
2022-09-01T16:36:07.064Z,101332.70
2022-09-01T16:38:47.727Z,101330.23
2022-09-01T16:41:39.823Z,101332.33
2022-09-01T16:44:23.679Z,101329.86
2022-09-01T16:47:08.869Z,101330.89
2022-09-01T16:49:50.932Z,101330.10
2022-09-01T16:52:29.128Z,101330.34
2022-09-01T16:55:18.618Z,101330.93
2022-09-01T16:58:00.569Z,101329.11
2022-09-01T17:00:41.673Z,101328.91
2022-09-01T17:03:19.566Z,101330.17
2022-09-01T17:05:58.036Z,101332.89
2022-09-01T17:08:35.402Z,101328.20
2022-09-01T17:11:11.944Z,101326.19
2022-09-01T17:13:48.097Z,101328.33
2022-09-01T17:16:26.016Z,101332.27
2022-09-01T17:19:00.815Z,101331.89
2022-09-01T17:21:41.895Z,101338.02
2022-09-01T17:24:24.748Z,101335.02
2022-09-01T17:27:08.078Z,101335.30
2022-09-01T17:29:48.183Z,101334.59
2022-09-01T17:32:48.381Z,101333.95
2022-09-01T17:35:33.005Z,101327.70
2022-09-01T17:38:18.234Z,101333.24
2022-09-01T17:41:07.181Z,101336.46
2022-09-01T17:43:51.102Z,101338.37
2022-09-01T17:46:34.410Z,101341.27
2022-09-01T17:49:14.545Z,101344.02
2022-09-01T17:51:55.512Z,101346.51
2022-09-01T17:54:36.486Z,101347.67
2022-09-01T17:57:13.683Z,101350.59
2022-09-01T17:59:54.000Z,101353.38
2022-09-01T18:02:58.501Z,101355.91
2022-09-01T18:05:37.652Z,101351.90
2022-09-01T18:08:22.382Z,101351.38
2022-09-01T18:10:59.984Z,101353.67
2022-09-01T18:13:52.239Z,101354.40
2022-09-01T18:16:29.669Z,101357.43
2022-09-01T18:19:05.666Z,101357.57
2022-09-01T18:21:48.820Z,101358.67
2022-09-01T18:24:27.754Z,101363.33
2022-09-01T18:27:01.722Z,101364.48
2022-09-01T18:29:33.612Z,101367.03
2022-09-01T18:32:19.083Z,101371.71
2022-09-01T18:35:12.447Z,101375.77
2022-09-01T18:37:58.162Z,101378.06
2022-09-01T18:40:36.184Z,101379.01
2022-09-01T18:43:17.968Z,101377.80
2022-09-01T18:45:57.105Z,101385.47
2022-09-01T18:48:41.349Z,101384.23
2022-09-01T18:51:23.220Z,101386.84
2022-09-01T18:54:02.134Z,101386.98
2022-09-01T18:56:39.500Z,101387.72
2022-09-01T18:59:32.183Z,101387.98
2022-09-01T19:02:24.138Z,101383.92
2022-09-01T19:05:03.490Z,101381.70
2022-09-01T19:07:44.141Z,101382.45
2022-09-01T19:10:24.386Z,101381.86
2022-09-01T19:13:04.325Z,101382.54
2022-09-01T19:15:42.870Z,101381.56
2022-09-01T19:18:27.068Z,101385.74
2022-09-01T19:21:06.734Z,101390.08
2022-09-01T19:23:47.620Z,101388.48
2022-09-01T19:26:21.249Z,101390.55
2022-09-01T19:28:59.431Z,101392.66
2022-09-01T19:31:35.272Z,101398.69
2022-09-01T19:34:13.196Z,101399.20
2022-09-01T19:36:48.414Z,101400.14
2022-09-01T19:39:23.320Z,101402.41
2022-09-01T19:42:00.447Z,101404.10
2022-09-01T19:44:42.377Z,101398.45
2022-09-01T19:47:19.984Z,101402.80
2022-09-01T19:50:01.580Z,101404.11
2022-09-01T19:52:39.625Z,101398.08
2022-09-01T19:55:20.915Z,101399.13
2022-09-01T19:57:58.391Z,101398.80
2022-09-01T20:00:51.222Z,101400.80
2022-09-01T20:03:28.694Z,101399.98
2022-09-01T20:06:04.749Z,101402.56
2022-09-01T20:08:41.327Z,101400.58
2022-09-01T20:11:20.339Z,101399.71
2022-09-01T20:14:15.491Z,101399.41
2022-09-01T20:16:52.266Z,101397.95
2022-09-01T20:19:31.217Z,101404.74
2022-09-01T20:22:14.081Z,101409.84
2022-09-01T20:24:47.221Z,101410.58
2022-09-01T20:27:33.323Z,101412.17
2022-09-01T20:30:10.761Z,101414.55
2022-09-01T20:32:51.683Z,101413.75
2022-09-01T20:35:31.177Z,101415.86
2022-09-01T20:38:27.687Z,101415.21
2022-09-01T20:41:02.033Z,101416.13
2022-09-01T20:43:41.436Z,101414.95
2022-09-01T20:46:13.308Z,101417.76
2022-09-01T20:48:45.479Z,101416.36
2022-09-01T20:51:22.748Z,101419.81
2022-09-01T20:54:17.281Z,101419.71
2022-09-01T20:56:56.337Z,101417.31
2022-09-01T20:59:40.100Z,101421.46
2022-09-01T21:02:31.481Z,101421.05
2022-09-01T21:05:16.003Z,101423.80
2022-09-01T21:07:56.557Z,101423.98
2022-09-01T21:10:41.079Z,101426.20
2022-09-01T21:13:25.284Z,101427.08
2022-09-01T21:16:01.531Z,101426.11
2022-09-01T21:18:46.754Z,101428.19
2022-09-01T21:21:29.457Z,101425.27
2022-09-01T21:24:01.312Z,101425.04
2022-09-01T21:26:37.792Z,101422.70
2022-09-01T21:29:28.919Z,101422.05
2022-09-01T21:32:02.870Z,101425.18
2022-09-01T21:34:34.895Z,101427.56
2022-09-01T21:37:06.766Z,101424.79
2022-09-01T21:39:38.721Z,101420.58
2022-09-01T21:42:14.331Z,101422.86
2022-09-01T21:44:46.705Z,101421.24
2022-09-01T21:47:19.351Z,101419.84
2022-09-01T21:49:51.688Z,101418.65
2022-09-01T21:52:23.603Z,101419.81
2022-09-01T21:54:55.433Z,101421.48
2022-09-01T21:57:27.520Z,101420.88
2022-09-01T21:59:59.397Z,101422.25
2022-09-01T22:02:33.966Z,101419.66
2022-09-01T22:05:06.460Z,101421.09
2022-09-01T22:07:40.573Z,101423.16
2022-09-01T22:10:18.833Z,101424.00
2022-09-01T22:12:53.912Z,101425.83
2022-09-01T22:15:26.864Z,101426.75
2022-09-01T22:17:59.220Z,101426.36
2022-09-01T22:20:32.115Z,101423.47
2022-09-01T22:23:03.959Z,101424.17
2022-09-01T22:25:37.809Z,101420.95
2022-09-01T22:28:10.946Z,101428.62
2022-09-01T22:30:48.363Z,101427.08
2022-09-01T22:33:22.257Z,101424.66
2022-09-01T22:35:56.843Z,101427.45
2022-09-01T22:38:29.524Z,101428.30
2022-09-01T22:41:02.393Z,101425.86
2022-09-01T22:43:37.108Z,101427.52
2022-09-01T22:46:09.987Z,101428.90
2022-09-01T22:48:42.044Z,101431.59
2022-09-01T22:51:15.157Z,101426.44
2022-09-01T22:53:49.877Z,101428.58
2022-09-01T22:56:25.025Z,101429.74
2022-09-01T22:58:59.880Z,101430.41
2022-09-01T23:01:35.793Z,101431.25
2022-09-01T23:04:10.287Z,101431.29
2022-09-01T23:06:46.970Z,101432.45
2022-09-01T23:09:20.117Z,101432.84
2022-09-01T23:11:52.208Z,101434.29
2022-09-01T23:14:25.911Z,101424.31
2022-09-01T23:16:58.441Z,101424.67
2022-09-01T23:19:30.396Z,101419.04
2022-09-01T23:22:03.188Z,101418.38
2022-09-01T23:24:36.844Z,101420.39
2022-09-01T23:27:08.973Z,101419.47
2022-09-01T23:29:42.254Z,101421.02
2022-09-01T23:32:14.254Z,101417.68
2022-09-01T23:36:35.669Z,101412.33
2022-09-01T23:39:07.913Z,101410.54
2022-09-01T23:41:43.066Z,101408.81
2022-09-01T23:44:16.068Z,101407.48
2022-09-01T23:46:49.039Z,101404.96
2022-09-01T23:49:21.520Z,101405.77
2022-09-01T23:51:57.265Z,101402.08
2022-09-01T23:54:29.140Z,101404.85
2022-09-01T23:57:03.131Z,101407.27
2022-09-01T23:59:34.906Z,101405.93
